NHT weather

RAF Northolt
London, England, United Kingdom

Public forecast

Using degrees Celsius for public forecast. Weather courtesy of forecast.io.

Current aviation weather report (METAR) for RAF Northolt

Retrieved 2020/04/10 04:50 UTC (1 hour ago):

EGWU 100450Z AUTO 06004KT 6000 // NCD 08/06 Q1025

Aviation forecast (TAF) for RAF Northolt

Forecast is more than 6 hours old.

Retrieved 2020/04/09 18:21 UTC (12 hours ago):

TAF TAF EGWU 091912Z 0918/1012 CNL